createdAt,value
2022-11-24T00:00:43.296Z,13.60
2022-11-24T00:06:07.637Z,11.70
2022-11-24T00:11:14.211Z,9.40
2022-11-24T00:16:20.239Z,10.80
2022-11-24T00:21:24.489Z,11.60
2022-11-24T00:26:30.257Z,9.60
2022-11-24T00:31:38.527Z,10.00
2022-11-24T00:36:42.394Z,11.00
2022-11-24T00:41:45.508Z,7.60
2022-11-24T00:46:48.675Z,11.80
2022-11-24T00:51:52.141Z,10.50
2022-11-24T00:56:55.174Z,9.60
2022-11-24T01:01:58.201Z,11.30
2022-11-24T01:07:01.291Z,8.70
2022-11-24T01:12:04.543Z,8.30
2022-11-24T01:17:07.606Z,9.00
2022-11-24T01:22:10.620Z,10.80
2022-11-24T01:27:13.620Z,10.60
2022-11-24T01:32:16.626Z,11.50
2022-11-24T01:37:19.940Z,10.50
2022-11-24T01:42:23.251Z,9.50
2022-11-24T01:47:41.105Z,8.10
2022-11-24T01:52:49.847Z,11.40
2022-11-24T01:58:02.892Z,12.10
2022-11-24T02:03:06.421Z,9.90
2022-11-24T02:08:19.709Z,9.60
2022-11-24T02:13:23.066Z,9.40
2022-11-24T02:18:26.277Z,10.20
2022-11-24T02:24:00.312Z,11.20
2022-11-24T02:29:04.332Z,12.40
2022-11-24T02:34:07.350Z,10.60
2022-11-24T02:39:13.224Z,9.70
2022-11-24T02:44:20.015Z,12.00
2022-11-24T02:49:23.027Z,8.00
2022-11-24T02:54:26.130Z,14.30
2022-11-24T02:59:29.137Z,12.50
2022-11-24T03:04:32.503Z,11.60
2022-11-24T03:09:35.765Z,14.50
2022-11-24T03:14:38.772Z,11.20
2022-11-24T03:19:41.777Z,9.20
2022-11-24T03:24:44.987Z,15.90
2022-11-24T03:29:47.995Z,14.90
2022-11-24T03:34:51.000Z,12.80
2022-11-24T03:39:54.107Z,14.10
2022-11-24T03:44:57.220Z,12.60
2022-11-24T03:50:00.226Z,13.40
2022-11-24T03:55:03.331Z,11.30
2022-11-24T04:00:07.333Z,11.80
2022-11-24T04:05:10.572Z,15.00
2022-11-24T04:10:13.976Z,15.10
2022-11-24T04:15:19.266Z,12.50
2022-11-24T04:20:22.355Z,11.00
2022-11-24T04:25:25.361Z,11.90
2022-11-24T04:30:29.250Z,10.00
2022-11-24T04:35:32.297Z,13.90
2022-11-24T04:40:35.302Z,13.80
2022-11-24T04:45:38.825Z,13.80
2022-11-24T04:50:42.135Z,10.90
2022-11-24T04:55:45.138Z,10.00
2022-11-24T05:00:48.146Z,8.70
2022-11-24T05:05:51.154Z,11.80
2022-11-24T05:10:54.152Z,11.30
2022-11-24T05:15:57.149Z,10.70
2022-11-24T05:21:00.265Z,8.70
2022-11-24T05:26:03.783Z,9.80
2022-11-24T05:31:06.914Z,7.10
2022-11-24T05:36:30.479Z,10.90
2022-11-24T05:41:33.337Z,11.10
2022-11-24T05:46:36.325Z,8.60
2022-11-24T05:51:39.292Z,9.00
2022-11-24T05:56:42.200Z,8.10
2022-11-24T06:01:45.096Z,7.90
2022-11-24T06:06:48.101Z,6.80
2022-11-24T06:11:50.899Z,12.30
2022-11-24T06:16:53.653Z,12.90
2022-11-24T06:21:56.708Z,14.70
2022-11-24T06:26:59.654Z,12.40
2022-11-24T06:32:02.577Z,12.40
2022-11-24T06:37:05.611Z,13.10
2022-11-24T06:42:09.146Z,11.60
2022-11-24T06:47:11.935Z,10.90
2022-11-24T06:52:14.769Z,16.60
2022-11-24T06:57:17.752Z,24.90
2022-11-24T07:02:20.653Z,14.60
2022-11-24T07:07:23.785Z,12.30
2022-11-24T07:12:26.718Z,8.60
2022-11-24T07:17:29.523Z,14.70
2022-11-24T07:22:32.279Z,12.50
2022-11-24T07:27:35.174Z,10.50
2022-11-24T07:32:37.976Z,16.30
2022-11-24T07:37:40.716Z,15.60
2022-11-24T07:42:43.418Z,14.20
2022-11-24T07:47:46.249Z,12.60
2022-11-24T07:52:49.220Z,13.40
2022-11-24T07:57:52.093Z,14.30
2022-11-24T08:02:54.810Z,11.20
2022-11-24T08:07:59.997Z,9.70
2022-11-24T08:13:02.763Z,14.50
2022-11-24T08:18:06.078Z,11.50
2022-11-24T08:23:09.070Z,9.60
2022-11-24T08:28:11.848Z,11.10
2022-11-24T08:33:14.607Z,8.20
2022-11-24T08:38:17.460Z,12.60
2022-11-24T08:43:20.363Z,12.00
2022-11-24T08:48:23.167Z,16.30
2022-11-24T08:53:26.113Z,12.00
2022-11-24T08:58:30.200Z,15.90
2022-11-24T09:03:32.918Z,12.50
2022-11-24T09:08:37.521Z,9.60
2022-11-24T09:13:41.064Z,9.60
2022-11-24T09:18:44.464Z,13.00
2022-11-24T09:23:49.107Z,13.00
2022-11-24T09:28:56.321Z,14.30
2022-11-24T09:33:59.655Z,12.50
2022-11-24T09:39:03.164Z,11.40
2022-11-24T09:44:16.319Z,10.10
2022-11-24T09:49:51.695Z,10.10
2022-11-24T09:55:00.500Z,12.60
2022-11-24T10:00:12.569Z,11.60
2022-11-24T10:05:15.536Z,13.30
2022-11-24T10:10:37.050Z,10.30
2022-11-24T10:16:11.080Z,10.60
2022-11-24T10:21:32.837Z,10.90
2022-11-24T10:26:39.555Z,16.00
2022-11-24T10:37:08.306Z,13.10
2022-11-24T10:42:18.260Z,12.10
2022-11-24T10:47:22.909Z,12.60
2022-11-24T10:52:28.828Z,10.50
2022-11-24T10:57:37.328Z,16.80
2022-11-24T11:02:40.585Z,18.20
2022-11-24T11:07:43.743Z,15.20
2022-11-24T11:12:46.813Z,13.70
2022-11-24T11:17:52.534Z,13.10
2022-11-24T11:22:57.539Z,11.70
2022-11-24T11:28:29.238Z,15.90
2022-11-24T11:38:59.733Z,13.40
2022-11-24T11:44:11.748Z,16.90
2022-11-24T11:49:14.569Z,10.70
2022-11-24T11:54:34.060Z,11.80
2022-11-24T12:00:05.587Z,14.00
2022-11-24T12:05:14.367Z,16.30
2022-11-24T12:10:33.879Z,10.00
2022-11-24T12:15:56.986Z,13.70
2022-11-24T12:21:29.486Z,11.50
2022-11-24T12:26:41.443Z,11.50
2022-11-24T12:32:03.802Z,17.60
2022-11-24T12:37:24.806Z,16.50
2022-11-24T12:42:36.715Z,14.50
2022-11-24T12:48:07.337Z,18.80
2022-11-24T12:53:14.994Z,17.30
2022-11-24T12:58:31.659Z,16.70
2022-11-24T13:04:12.548Z,15.20
2022-11-24T13:09:15.812Z,18.10
2022-11-24T13:14:22.867Z,20.20
2022-11-24T13:19:31.137Z,17.80
2022-11-24T13:24:37.451Z,15.00
2022-11-24T13:30:01.356Z,14.20
2022-11-24T13:35:14.803Z,12.70
2022-11-24T13:40:18.341Z,23.10
2022-11-24T13:45:39.545Z,18.00
2022-11-24T13:50:51.929Z,18.40
2022-11-24T13:55:59.977Z,18.70
2022-11-24T14:01:08.903Z,17.90
2022-11-24T14:06:25.827Z,15.40
2022-11-24T14:11:29.153Z,17.80
2022-11-24T14:16:31.851Z,25.30
2022-11-24T14:21:38.253Z,26.30
2022-11-24T14:26:41.761Z,18.70
2022-11-24T14:31:56.309Z,16.40
2022-11-24T14:37:00.755Z,17.30
2022-11-24T14:42:08.142Z,15.50
2022-11-24T14:47:32.250Z,21.80
2022-11-24T14:52:36.106Z,15.60
2022-11-24T14:57:42.601Z,19.10
2022-11-24T15:03:00.414Z,14.80
2022-11-24T15:08:03.991Z,14.90
2022-11-24T15:13:15.261Z,17.90
2022-11-24T15:18:30.044Z,14.20
2022-11-24T15:23:35.236Z,12.40
2022-11-24T15:28:38.533Z,10.80
2022-11-24T15:33:42.247Z,10.80
2022-11-24T15:38:44.955Z,25.50
2022-11-24T15:43:47.789Z,15.80
2022-11-24T15:48:50.592Z,19.80
2022-11-24T15:54:00.378Z,15.60
2022-11-24T15:59:04.184Z,15.90
2022-11-24T16:04:07.798Z,15.10
2022-11-24T16:09:15.034Z,14.40
2022-11-24T16:14:17.807Z,17.30
2022-11-24T16:19:20.562Z,22.50
2022-11-24T16:24:23.358Z,15.90
2022-11-24T16:29:26.211Z,14.60
2022-11-24T16:34:28.910Z,13.90
2022-11-24T16:39:31.666Z,16.70
2022-11-24T16:44:34.852Z,17.70
2022-11-24T16:49:37.887Z,15.90
2022-11-24T16:54:40.684Z,12.00
2022-11-24T16:59:43.738Z,22.10
2022-11-24T17:04:46.539Z,20.90
2022-11-24T17:09:49.437Z,18.10
2022-11-24T17:15:16.288Z,18.60
2022-11-24T17:20:15.479Z,16.00
2022-11-24T17:25:18.333Z,16.70
2022-11-24T17:30:21.112Z,16.40
2022-11-24T17:35:23.813Z,16.40
2022-11-24T17:40:29.080Z,23.40
2022-11-24T17:45:32.670Z,23.30
2022-11-24T17:50:35.521Z,23.60
2022-11-24T17:55:38.513Z,20.70
2022-11-24T18:00:41.251Z,24.10
2022-11-24T18:05:44.136Z,19.90
2022-11-24T18:10:46.991Z,14.60
2022-11-24T18:15:49.711Z,19.10
2022-11-24T18:21:01.211Z,18.90
2022-11-24T18:26:05.707Z,17.90
2022-11-24T18:31:12.261Z,16.20
2022-11-24T18:36:18.538Z,16.30
2022-11-24T18:41:22.367Z,14.30
2022-11-24T18:46:25.572Z,16.60
2022-11-24T18:51:28.437Z,17.50
2022-11-24T18:56:31.675Z,19.10
2022-11-24T19:01:34.521Z,21.60
2022-11-24T19:06:38.008Z,17.70
2022-11-24T19:11:43.477Z,20.00
2022-11-24T19:16:48.272Z,15.80
2022-11-24T19:21:51.533Z,18.60
2022-11-24T19:26:54.778Z,20.30
2022-11-24T19:31:57.710Z,20.30
2022-11-24T19:37:00.961Z,23.80
2022-11-24T19:42:04.880Z,23.20
2022-11-24T19:47:07.569Z,21.30
2022-11-24T19:52:10.325Z,24.80
2022-11-24T19:57:13.190Z,25.80
2022-11-24T20:02:16.129Z,22.60
2022-11-24T20:07:20.508Z,21.80
2022-11-24T20:12:23.539Z,18.20
2022-11-24T20:17:30.091Z,22.80
2022-11-24T20:22:32.932Z,21.40
2022-11-24T20:27:35.670Z,18.50
2022-11-24T20:32:38.440Z,20.10
2022-11-24T20:43:01.750Z,14.00
2022-11-24T20:48:04.633Z,18.70
2022-11-24T20:53:07.556Z,14.50
2022-11-24T20:58:11.593Z,19.90
2022-11-24T21:03:14.493Z,19.60
2022-11-24T21:08:19.458Z,18.00
2022-11-24T21:13:22.377Z,16.10
2022-11-24T21:18:25.135Z,14.50
2022-11-24T21:23:28.273Z,15.30
2022-11-24T21:28:31.151Z,12.90
2022-11-24T21:33:34.329Z,9.90
2022-11-24T21:38:37.144Z,15.50
2022-11-24T21:43:39.885Z,18.90
2022-11-24T21:48:43.057Z,18.50
2022-11-24T21:53:47.115Z,41.70
2022-11-24T21:58:53.620Z,23.40
2022-11-24T22:03:56.507Z,25.50
2022-11-24T22:08:59.329Z,16.40
2022-11-24T22:14:02.108Z,18.10
2022-11-24T22:19:05.020Z,25.00
2022-11-24T22:24:08.372Z,14.50
2022-11-24T22:29:11.235Z,16.00
2022-11-24T22:34:14.005Z,12.10
2022-11-24T22:39:16.742Z,11.10
2022-11-24T22:44:19.503Z,11.10
2022-11-24T22:49:23.672Z,15.10
2022-11-24T22:54:26.388Z,14.40
2022-11-24T22:59:29.177Z,13.30
2022-11-24T23:04:31.947Z,12.10
2022-11-24T23:09:34.767Z,12.80
2022-11-24T23:14:37.634Z,11.20
2022-11-24T23:19:40.495Z,9.70
2022-11-24T23:24:43.280Z,14.40
2022-11-24T23:29:46.094Z,12.70
2022-11-24T23:34:48.979Z,13.30
2022-11-24T23:39:51.993Z,17.40
2022-11-24T23:44:54.786Z,13.90
2022-11-24T23:49:57.469Z,13.30
